Time;durP1;ratioP1;P1;durP2;ratioP2;P2;SDS_P1;SDS_P2;PMS_P1;PMS_P2;Temp;Humidity;BMP_temperature;BMP_pressure;BME280_temperature;BME280_humidity;BME280_pressure;Samples;Min_cycle;Max_cycle;Signal;HPM_P1;HPM_P2
2021/11/29 00:00:36;;;;;;;4.53;1.40;;;6.30;99.90;;;;;;6125349;23;20002;-78
2021/11/29 00:03:06;;;;;;;2.50;1.50;;;6.30;99.90;;;;;;6099702;23;20070;-79
2021/11/29 00:05:33;;;;;;;3.83;1.40;;;6.40;99.90;;;;;;6125267;23;20081;-76
2021/11/29 00:08:00;;;;;;;6.97;1.90;;;6.30;99.90;;;;;;6125081;23;20418;-77
2021/11/29 00:10:27;;;;;;;3.15;1.40;;;6.40;99.90;;;;;;6125292;23;20014;-77
2021/11/29 00:12:53;;;;;;;5.20;1.88;;;6.30;99.90;;;;;;6125304;23;19994;-77
2021/11/29 00:15:19;;;;;;;2.13;1.48;;;6.30;99.90;;;;;;6125203;23;20096;-79
2021/11/29 00:17:45;;;;;;;15.95;10.23;;;6.30;99.90;;;;;;6099352;23;20026;-79
2021/11/29 00:20:12;;;;;;;4.15;2.15;;;6.30;99.90;;;;;;6125183;23;20061;-79
2021/11/29 00:22:38;;;;;;;2.78;1.70;;;6.30;99.90;;;;;;6125048;23;20005;-77
2021/11/29 00:25:05;;;;;;;3.40;1.65;;;6.40;99.90;;;;;;6124980;23;20020;-76
2021/11/29 00:27:31;;;;;;;4.25;1.83;;;6.40;99.90;;;;;;6125279;23;20025;-76
2021/11/29 00:29:57;;;;;;;2.70;1.33;;;6.30;99.90;;;;;;6125182;23;20002;-76
2021/11/29 00:32:23;;;;;;;3.33;2.00;;;6.20;99.90;;;;;;6125394;23;20002;-77
2021/11/29 00:34:49;;;;;;;2.50;1.65;;;6.10;99.90;;;;;;6099216;23;20049;-77
2021/11/29 00:37:15;;;;;;;5.43;1.55;;;6.10;99.90;;;;;;6124832;23;19998;-77
2021/11/29 00:39:41;;;;;;;4.50;1.63;;;6.10;99.90;;;;;;6099424;23;20024;-77
2021/11/29 00:42:06;;;;;;;5.80;1.88;;;6.10;99.90;;;;;;6099088;23;20341;-77
2021/11/29 00:44:32;;;;;;;6.07;1.80;;;6.20;99.90;;;;;;6099106;23;19998;-77
2021/11/29 00:46:58;;;;;;;8.52;1.83;;;6.20;99.90;;;;;;6125123;23;20005;-77
2021/11/29 00:49:24;;;;;;;2.20;1.90;;;6.20;99.90;;;;;;6125019;23;20061;-79
2021/11/29 00:51:50;;;;;;;4.47;1.90;;;6.20;99.90;;;;;;6124827;23;20433;-79
2021/11/29 00:54:16;;;;;;;3.40;2.50;;;6.10;99.90;;;;;;6124638;23;20341;-77
2021/11/29 00:56:42;;;;;;;2.50;1.85;;;6.20;99.90;;;;;;6099067;23;20014;-77
2021/11/29 00:59:08;;;;;;;2.22;1.27;;;6.10;99.90;;;;;;6124878;23;20504;-78
2021/11/29 01:01:36;;;;;;;3.53;1.95;;;6.00;99.90;;;;;;6125129;23;20036;-78
2021/11/29 01:04:02;;;;;;;2.63;1.60;;;5.90;99.90;;;;;;6098873;23;20449;-78
2021/11/29 01:06:28;;;;;;;1.75;1.42;;;5.70;99.90;;;;;;6124744;23;20014;-83
2021/11/29 01:08:54;;;;;;;3.17;1.63;;;5.70;99.90;;;;;;6124443;23;20018;-78
2021/11/29 01:11:19;;;;;;;3.80;1.58;;;5.80;99.90;;;;;;6098998;23;20010;-77
2021/11/29 01:13:45;;;;;;;2.65;1.52;;;5.80;99.90;;;;;;6125019;23;20002;-78
2021/11/29 01:16:11;;;;;;;3.38;1.70;;;5.90;99.90;;;;;;6124623;23;20010;-78
2021/11/29 01:18:37;;;;;;;3.05;1.60;;;5.90;99.90;;;;;;6124707;23;20437;-77
2021/11/29 01:21:03;;;;;;;3.15;1.65;;;5.90;99.90;;;;;;6124829;23;20013;-78
2021/11/29 01:23:29;;;;;;;3.00;1.88;;;5.90;99.90;;;;;;6124480;23;20003;-78
2021/11/29 01:25:55;;;;;;;1.90;1.80;;;5.90;99.90;;;;;;6124582;23;20013;-78
2021/11/29 01:28:22;;;;;;;1.85;1.58;;;5.90;99.90;;;;;;6124631;23;20006;-77
2021/11/29 01:30:49;;;;;;;3.47;2.08;;;6.00;99.90;;;;;;6098601;23;20006;-77
2021/11/29 01:33:15;;;;;;;2.17;1.92;;;6.00;99.90;;;;;;6124581;23;20012;-78
2021/11/29 01:35:41;;;;;;;2.75;1.60;;;6.00;99.90;;;;;;6124410;23;20400;-78
2021/11/29 01:38:07;;;;;;;4.75;1.83;;;6.00;99.90;;;;;;6124117;23;20008;-78
2021/11/29 01:40:35;;;;;;;2.25;1.50;;;6.00;99.90;;;;;;6124278;23;20401;-77
2021/11/29 01:43:07;;;;;;;2.17;1.42;;;6.00;99.90;;;;;;6123875;23;20002;-77
2021/11/29 01:45:36;;;;;;;3.17;1.50;;;5.90;99.90;;;;;;6124784;23;20628;-78
2021/11/29 01:48:02;;;;;;;2.50;1.85;;;5.80;99.90;;;;;;6124545;23;20557;-77
2021/11/29 01:50:28;;;;;;;1.88;1.70;;;5.80;99.90;;;;;;6124582;23;20002;-77
2021/11/29 01:52:54;;;;;;;1.98;1.77;;;5.80;99.90;;;;;;6123729;23;20069;-77
2021/11/29 01:55:20;;;;;;;2.22;1.50;;;5.80;99.90;;;;;;6124380;23;20045;-77
2021/11/29 01:57:48;;;;;;;5.03;2.05;;;5.90;99.90;;;;;;6098483;23;20005;-77
2021/11/29 02:00:19;;;;;;;3.03;1.42;;;5.80;99.90;;;;;;6124181;23;20032;-77
2021/11/29 02:02:49;;;;;;;1.90;1.52;;;5.60;99.90;;;;;;6098610;23;20006;-77
2021/11/29 02:05:15;;;;;;;2.15;1.70;;;5.50;99.90;;;;;;6124289;23;20362;-77
2021/11/29 02:07:41;;;;;;;2.03;1.50;;;5.50;99.90;;;;;;6123904;23;20002;-77
2021/11/29 02:10:08;;;;;;;3.03;1.65;;;5.60;99.90;;;;;;6124030;23;20077;-78
2021/11/29 02:12:34;;;;;;;2.60;2.25;;;5.60;99.90;;;;;;6124445;23;20002;-78
2021/11/29 02:14:59;;;;;;;2.42;1.83;;;5.60;99.90;;;;;;6098061;23;20013;-78
2021/11/29 02:17:25;;;;;;;3.53;2.03;;;5.60;99.90;;;;;;6098495;23;20033;-78
2021/11/29 02:19:52;;;;;;;3.63;2.08;;;5.60;99.90;;;;;;6123355;23;20001;-78
2021/11/29 02:22:19;;;;;;;2.83;2.17;;;5.50;99.90;;;;;;6123791;23;20013;-79
2021/11/29 02:24:46;;;;;;;2.20;2.00;;;5.60;99.90;;;;;;6123878;23;20009;-79
2021/11/29 02:27:11;;;;;;;2.45;1.92;;;5.60;99.90;;;;;;6123860;23;20005;-78
2021/11/29 02:29:40;;;;;;;2.65;1.92;;;5.60;99.90;;;;;;6124260;23;20004;-78
2021/11/29 02:32:07;;;;;;;3.30;1.95;;;5.70;99.90;;;;;;6123923;23;20002;-78
2021/11/29 02:34:32;;;;;;;2.53;1.67;;;5.70;99.90;;;;;;6123879;23;20049;-78
2021/11/29 02:37:01;;;;;;;2.00;1.50;;;5.70;99.90;;;;;;6098155;23;20014;-78
2021/11/29 02:39:30;;;;;;;5.40;1.50;;;5.70;99.90;;;;;;6123524;23;20005;-78
2021/11/29 02:42:00;;;;;;;2.05;1.40;;;5.70;99.90;;;;;;6124170;23;20013;-78
2021/11/29 02:44:26;;;;;;;1.42;1.30;;;5.80;99.90;;;;;;6123888;23;20005;-78
2021/11/29 02:46:52;;;;;;;2.13;1.38;;;5.70;99.90;;;;;;6098125;23;20341;-79
2021/11/29 02:49:18;;;;;;;1.65;1.55;;;5.80;99.90;;;;;;6097718;23;20433;-78
2021/11/29 02:51:48;;;;;;;2.28;1.52;;;5.80;99.90;;;;;;6098240;23;20534;-78
2021/11/29 02:54:26;;;;;;;2.00;1.60;;;5.80;99.90;;;;;;6097845;23;20044;-78
2021/11/29 02:56:54;;;;;;;2.08;1.67;;;5.80;99.90;;;;;;6124109;23;20028;-78
2021/11/29 02:59:23;;;;;;;1.95;1.55;;;5.80;99.90;;;;;;6098143;23;20002;-78
2021/11/29 03:01:52;;;;;;;2.13;1.50;;;5.80;99.90;;;;;;6123840;23;20013;-79
2021/11/29 03:04:23;;;;;;;2.85;1.58;;;5.90;99.90;;;;;;6123983;23;20009;-78
2021/11/29 03:06:49;;;;;;;2.42;1.30;;;5.90;99.90;;;;;;6123882;23;19998;-78
2021/11/29 03:09:16;;;;;;;3.38;1.60;;;5.80;99.90;;;;;;6123569;23;20018;-78
2021/11/29 03:11:42;;;;;;;1.73;1.30;;;5.80;99.90;;;;;;6124051;23;20442;-78
2021/11/29 03:14:08;;;;;;;1.58;1.48;;;5.80;99.90;;;;;;6123667;23;19998;-78
2021/11/29 03:16:34;;;;;;;2.00;1.80;;;5.80;99.90;;;;;;6124190;23;20017;-78
2021/11/29 03:19:00;;;;;;;1.77;1.67;;;5.80;99.90;;;;;;6097637;23;20010;-78
2021/11/29 03:21:27;;;;;;;2.03;1.83;;;5.80;99.90;;;;;;6124059;23;20005;-78
2021/11/29 03:23:57;;;;;;;1.80;1.70;;;5.60;99.90;;;;;;6123396;23;19995;-78
2021/11/29 03:26:25;;;;;;;2.72;1.98;;;5.60;99.90;;;;;;6123971;23;20014;-78
2021/11/29 03:28:54;;;;;;;1.80;1.70;;;5.60;99.90;;;;;;6123653;23;20029;-78
2021/11/29 03:31:22;;;;;;;5.70;2.70;;;5.50;99.90;;;;;;6125638;23;19998;-78
2021/11/29 03:33:48;;;;;;;2.58;1.98;;;5.50;99.90;;;;;;6125779;23;20020;-79
2021/11/29 03:36:14;;;;;;;2.58;2.20;;;5.50;99.90;;;;;;6125599;23;20100;-78
2021/11/29 03:38:40;;;;;;;5.28;3.15;;;5.40;99.90;;;;;;6125424;23;20121;-78
2021/11/29 03:41:07;;;;;;;3.10;2.33;;;5.40;99.90;;;;;;6125848;23;20430;-78
2021/11/29 03:43:33;;;;;;;2.85;2.13;;;5.40;99.90;;;;;;6125392;23;20333;-78
2021/11/29 03:45:59;;;;;;;2.22;2.03;;;5.30;99.90;;;;;;6125799;23;19999;-78
2021/11/29 03:48:25;;;;;;;3.20;1.80;;;5.30;99.90;;;;;;6125700;23;20029;-79
2021/11/29 03:50:51;;;;;;;3.15;1.77;;;5.30;99.90;;;;;;6099644;23;20009;-79
2021/11/29 03:53:16;;;;;;;2.20;1.60;;;5.30;99.90;;;;;;6125402;23;20006;-79
2021/11/29 03:55:42;;;;;;;1.83;1.63;;;5.30;99.90;;;;;;6125386;23;20338;-78
2021/11/29 03:58:08;;;;;;;1.63;1.45;;;5.30;99.90;;;;;;6125647;23;20053;-79
2021/11/29 04:00:34;;;;;;;1.50;1.38;;;5.20;99.90;;;;;;6099627;23;20414;-79
2021/11/29 04:03:00;;;;;;;3.58;1.42;;;5.30;99.90;;;;;;6099546;23;19998;-78
2021/11/29 04:05:26;;;;;;;1.77;1.65;;;5.20;99.90;;;;;;6099468;23;20041;-79
2021/11/29 04:07:51;;;;;;;1.77;1.23;;;5.30;99.90;;;;;;6125363;23;20049;-79
2021/11/29 04:10:17;;;;;;;1.45;1.10;;;5.30;99.90;;;;;;6099417;23;20044;-78
2021/11/29 04:12:43;;;;;;;1.48;1.38;;;5.20;99.90;;;;;;6125521;23;20004;-78
2021/11/29 04:15:10;;;;;;;1.52;1.30;;;5.20;99.90;;;;;;6125172;23;20002;-79
2021/11/29 04:17:39;;;;;;;1.17;1.08;;;5.20;99.90;;;;;;6099375;23;20465;-78
2021/11/29 04:20:10;;;;;;;1.40;1.30;;;5.20;99.90;;;;;;6099373;23;20052;-79
2021/11/29 04:22:37;;;;;;;1.30;1.20;;;5.10;99.90;;;;;;6099241;23;20006;-78
2021/11/29 04:25:09;;;;;;;1.98;0.90;;;5.00;99.90;;;;;;6125148;23;20014;-78
2021/11/29 04:27:35;;;;;;;0.70;0.70;;;5.00;99.90;;;;;;6099308;23;20065;-79
2021/11/29 04:30:07;;;;;;;0.80;0.80;;;4.90;99.90;;;;;;6099242;23;20013;-79
2021/11/29 04:32:32;;;;;;;0.70;0.70;;;4.80;99.90;;;;;;6125145;23;20006;-78
2021/11/29 04:34:58;;;;;;;1.00;0.85;;;4.80;99.90;;;;;;6099184;23;20093;-79
2021/11/29 04:37:24;;;;;;;0.57;0.57;;;4.80;99.90;;;;;;6099131;23;20574;-79
2021/11/29 04:39:50;;;;;;;1.23;0.50;;;4.80;99.90;;;;;;6099136;23;20006;-78
2021/11/29 04:42:15;;;;;;;0.90;0.77;;;4.70;99.90;;;;;;6124599;23;20013;-78
2021/11/29 04:44:42;;;;;;;0.80;0.80;;;4.70;99.90;;;;;;6125326;23;20438;-79
2021/11/29 04:47:08;;;;;;;0.80;0.80;;;4.70;99.90;;;;;;6099048;23;20037;-78
2021/11/29 04:49:33;;;;;;;1.25;0.90;;;4.70;99.90;;;;;;6125315;23;20445;-79
2021/11/29 04:52:00;;;;;;;3.50;1.05;;;4.80;99.90;;;;;;6124676;23;20013;-78
2021/11/29 04:54:25;;;;;;;1.15;0.70;;;4.80;99.90;;;;;;6124622;23;20006;-79
2021/11/29 04:56:51;;;;;;;0.80;0.80;;;4.90;99.90;;;;;;6098787;23;20464;-78
2021/11/29 04:59:17;;;;;;;0.80;0.60;;;4.90;99.90;;;;;;6125128;23;20009;-79
2021/11/29 05:01:43;;;;;;;0.60;0.50;;;4.90;99.90;;;;;;6125180;23;20009;-79
2021/11/29 05:04:08;;;;;;;0.30;0.30;;;4.90;99.90;;;;;;6098654;23;20006;-78
2021/11/29 05:06:37;;;;;;;0.50;0.50;;;4.90;99.90;;;;;;6124793;23;20009;-78
2021/11/29 05:09:09;;;;;;;0.32;0.32;;;4.90;99.90;;;;;;6124634;23;20008;-78
2021/11/29 05:11:35;;;;;;;;;;;5.10;99.90;;;;;;6125557;23;20080;-78
2021/11/29 05:14:00;;;;;;;0.40;0.40;;;5.20;99.90;;;;;;6098838;23;19943;-79
2021/11/29 05:16:27;;;;;;;1.13;0.80;;;5.30;99.90;;;;;;6124524;23;20010;-78
2021/11/29 05:18:52;;;;;;;1.20;0.63;;;5.40;99.90;;;;;;6098209;23;20076;-79
2021/11/29 05:21:18;;;;;;;1.05;0.50;;;5.40;99.90;;;;;;6123135;23;20430;-78
2021/11/29 05:23:44;;;;;;;0.30;0.30;;;5.50;99.90;;;;;;6123828;23;19998;-78
2021/11/29 05:26:10;;;;;;;0.35;0.20;;;5.50;99.90;;;;;;6124124;23;20009;-79
2021/11/29 05:28:36;;;;;;;0.85;0.35;;;5.50;99.90;;;;;;6124387;23;20077;-78
2021/11/29 05:31:02;;;;;;;0.25;0.25;;;5.60;99.90;;;;;;6123396;23;20088;-80
2021/11/29 05:33:28;;;;;;;2.38;0.20;;;5.60;99.90;;;;;;6124437;23;20006;-81
2021/11/29 05:35:54;;;;;;;0.20;0.20;;;5.60;99.90;;;;;;6124676;23;20165;-80
2021/11/29 05:38:19;;;;;;;0.10;0.10;;;5.70;99.90;;;;;;6097746;23;20137;-82
2021/11/29 05:40:45;;;;;;;0.20;0.20;;;5.80;99.90;;;;;;6124278;23;20433;-79
2021/11/29 05:43:11;;;;;;;0.20;0.20;;;5.80;99.90;;;;;;6124601;23;20006;-80
2021/11/29 05:45:37;;;;;;;0.20;0.20;;;5.90;99.90;;;;;;6124731;23;20016;-79
2021/11/29 05:48:03;;;;;;;0.17;0.17;;;5.90;99.90;;;;;;6097726;23;20398;-80
2021/11/29 05:50:29;;;;;;;0.20;0.20;;;5.90;99.90;;;;;;6123483;23;20063;-81
2021/11/29 05:52:55;;;;;;;0.17;0.17;;;5.90;99.90;;;;;;6124281;23;20073;-81
2021/11/29 05:55:20;;;;;;;0.20;0.20;;;6.00;99.90;;;;;;6098133;23;20073;-80
2021/11/29 05:57:46;;;;;;;0.17;0.17;;;6.00;99.90;;;;;;6125140;23;20008;-89
2021/11/29 06:00:16;;;;;;;0.10;0.10;;;6.00;99.90;;;;;;6099063;23;20013;-81
2021/11/29 06:02:43;;;;;;;0.63;0.30;;;6.00;99.90;;;;;;6124463;23;19998;-81
2021/11/29 06:05:10;;;;;;;0.10;0.10;;;6.00;99.90;;;;;;6122043;23;20008;-80
2021/11/29 06:07:37;;;;;;;0.30;0.30;;;6.10;99.90;;;;;;6123001;23;20021;-80
2021/11/29 06:10:04;;;;;;;0.30;0.30;;;6.20;99.90;;;;;;6123105;23;20062;-80
2021/11/29 06:12:30;;;;;;;0.50;0.28;;;6.20;99.90;;;;;;6122728;23;20002;-80
2021/11/29 06:14:56;;;;;;;0.20;0.20;;;6.10;99.90;;;;;;6096419;23;20024;-80
2021/11/29 06:17:21;;;;;;;0.13;0.13;;;6.10;99.90;;;;;;6122076;23;20024;-80
2021/11/29 06:19:47;;;;;;;0.30;0.30;;;6.10;99.90;;;;;;6096415;23;20012;-80
2021/11/29 06:22:13;;;;;;;0.28;0.28;;;6.10;99.90;;;;;;6096350;23;20109;-81
2021/11/29 06:24:39;;;;;;;0.50;0.40;;;6.10;99.90;;;;;;6095535;23;20093;-80
2021/11/29 06:27:05;;;;;;;0.75;0.32;;;6.10;99.90;;;;;;6095037;23;20069;-82
2021/11/29 06:29:30;;;;;;;0.50;0.35;;;6.10;99.90;;;;;;6095121;23;20029;-80
2021/11/29 06:31:56;;;;;;;0.30;0.30;;;6.10;99.90;;;;;;6123062;23;20092;-81
2021/11/29 06:34:25;;;;;;;0.47;0.47;;;6.10;99.90;;;;;;6096161;23;20006;-81
2021/11/29 06:36:52;;;;;;;0.20;0.20;;;6.10;99.90;;;;;;6123070;23;20096;-81
2021/11/29 06:39:20;;;;;;;0.47;0.40;;;6.20;99.90;;;;;;6096284;23;20342;-80
2021/11/29 06:41:47;;;;;;;0.30;0.30;;;6.20;99.90;;;;;;6122661;23;20495;-80
2021/11/29 06:44:13;;;;;;;0.22;0.22;;;6.20;99.90;;;;;;6096590;23;20583;-80
2021/11/29 06:46:38;;;;;;;0.25;0.25;;;6.20;99.90;;;;;;6096455;23;20010;-80
2021/11/29 06:49:04;;;;;;;0.28;0.25;;;6.20;99.90;;;;;;6122973;23;20059;-80
2021/11/29 06:51:32;;;;;;;0.35;0.35;;;6.30;99.90;;;;;;6123639;23;20554;-80
2021/11/29 06:53:58;;;;;;;0.70;0.70;;;6.20;99.90;;;;;;6122684;23;20005;-82
2021/11/29 06:56:24;;;;;;;0.30;0.30;;;6.30;99.90;;;;;;6123949;23;20037;-81
2021/11/29 06:58:50;;;;;;;0.98;0.47;;;6.40;99.90;;;;;;6098067;23;20122;-80
2021/11/29 07:01:15;;;;;;;0.20;0.20;;;6.30;99.90;;;;;;6124562;23;20006;-81
2021/11/29 07:03:42;;;;;;;0.30;0.30;;;6.40;99.90;;;;;;6123764;23;20022;-82
2021/11/29 07:06:08;;;;;;;0.30;0.30;;;6.50;99.90;;;;;;6099853;23;20009;-82
2021/11/29 07:08:34;;;;;;;0.28;0.28;;;6.50;99.90;;;;;;6100561;23;20449;-80
2021/11/29 07:11:00;;;;;;;0.20;0.20;;;6.50;99.90;;;;;;6126245;23;20001;-78
2021/11/29 07:13:26;;;;;;;1.13;0.50;;;6.50;99.90;;;;;;6125543;23;20418;-81
2021/11/29 07:15:53;;;;;;;0.40;0.40;;;6.50;99.90;;;;;;6100192;23;20266;-84
2021/11/29 07:18:19;;;;;;;0.60;0.60;;;6.40;99.90;;;;;;6126334;23;20339;-84
2021/11/29 07:20:45;;;;;;;0.65;0.65;;;6.50;99.90;;;;;;6100653;23;20006;-82
2021/11/29 07:23:11;;;;;;;0.10;0.10;;;6.50;99.90;;;;;;6125857;23;20002;-83
2021/11/29 07:25:37;;;;;;;0.50;0.50;;;6.50;99.90;;;;;;6100138;23;20105;-83
2021/11/29 07:28:03;;;;;;;0.52;0.52;;;6.40;99.90;;;;;;6100301;23;20025;-81
2021/11/29 07:30:29;;;;;;;0.43;0.40;;;6.40;99.90;;;;;;6126081;23;20013;-83
2021/11/29 07:32:55;;;;;;;0.82;0.60;;;6.40;99.90;;;;;;6126235;23;20026;-83
2021/11/29 07:35:27;;;;;;;0.40;0.38;;;6.40;99.90;;;;;;6125505;23;20006;-82
2021/11/29 07:37:53;;;;;;;0.40;0.40;;;6.30;99.90;;;;;;6099691;23;20013;-82
2021/11/29 07:40:21;;;;;;;0.35;0.35;;;6.40;99.90;;;;;;6125773;23;20006;-81
2021/11/29 07:42:47;;;;;;;0.22;0.22;;;6.40;99.90;;;;;;6099967;23;20013;-81
2021/11/29 07:45:13;;;;;;;1.02;0.40;;;6.40;99.90;;;;;;6125738;23;20388;-82
2021/11/29 07:47:41;;;;;;;0.30;0.30;;;6.40;99.90;;;;;;6099613;23;20029;-81
2021/11/29 07:50:10;;;;;;;0.50;0.50;;;6.50;99.90;;;;;;6125703;23;20082;-81
2021/11/29 07:52:36;;;;;;;1.05;0.40;;;6.50;99.90;;;;;;6125677;23;20053;-82
2021/11/29 07:55:07;;;;;;;0.50;0.50;;;6.60;99.90;;;;;;6125559;23;20414;-82
2021/11/29 07:57:33;;;;;;;1.00;1.00;;;6.60;99.90;;;;;;6125604;23;20005;-80
2021/11/29 08:00:00;;;;;;;0.73;0.50;;;6.70;99.90;;;;;;6125725;23;20251;-82
2021/11/29 08:02:26;;;;;;;1.17;0.73;;;6.70;99.90;;;;;;6100016;23;20006;-82
2021/11/29 08:04:53;;;;;;;0.65;0.52;;;6.70;99.90;;;;;;6125177;23;20002;-82
2021/11/29 08:07:19;;;;;;;0.40;0.40;;;6.70;99.90;;;;;;6099440;23;20002;-82
2021/11/29 08:09:45;;;;;;;0.73;0.60;;;6.70;99.90;;;;;;6099486;23;20061;-83
2021/11/29 08:12:11;;;;;;;1.35;1.10;;;6.70;99.90;;;;;;6125382;23;20006;-83
2021/11/29 08:14:37;;;;;;;1.02;0.93;;;6.80;99.90;;;;;;6125556;23;20010;-82
2021/11/29 08:17:03;;;;;;;0.30;0.30;;;7.00;99.90;;;;;;6125491;23;20028;-83
2021/11/29 08:19:28;;;;;;;0.75;0.55;;;7.10;99.90;;;;;;6125379;23;20329;-83
2021/11/29 08:21:54;;;;;;;2.03;1.30;;;7.30;99.90;;;;;;6099600;23;20009;-83
2021/11/29 08:24:20;;;;;;;0.82;0.60;;;7.50;99.90;;;;;;6125245;23;20500;-82
2021/11/29 08:26:45;;;;;;;0.40;0.40;;;7.60;99.90;;;;;;6125242;23;20018;-83
2021/11/29 08:29:12;;;;;;;0.43;0.38;;;7.70;99.90;;;;;;6125819;23;20006;-82
2021/11/29 08:31:38;;;;;;;0.30;0.30;;;7.70;99.90;;;;;;6125344;23;20002;-83
2021/11/29 08:34:04;;;;;;;0.50;0.50;;;7.60;99.90;;;;;;6099523;23;20384;-83
2021/11/29 08:36:30;;;;;;;1.55;0.30;;;7.60;99.90;;;;;;6099531;23;20021;-83
2021/11/29 08:38:56;;;;;;;0.38;0.38;;;7.60;99.90;;;;;;6124865;23;20069;-84
2021/11/29 08:41:21;;;;;;;0.30;0.30;;;7.60;99.90;;;;;;6125540;23;20013;-81
2021/11/29 08:43:48;;;;;;;1.00;0.20;;;7.60;99.90;;;;;;6125272;23;20396;-80
2021/11/29 08:46:14;;;;;;;0.93;0.40;;;7.60;99.90;;;;;;6099259;23;20006;-81
2021/11/29 08:48:40;;;;;;;0.50;0.50;;;7.60;99.90;;;;;;6125440;23;20009;-81
2021/11/29 08:51:06;;;;;;;0.60;0.45;;;7.70;99.90;;;;;;6099041;23;20033;-82
2021/11/29 08:53:32;;;;;;;0.40;0.40;;;7.70;99.90;;;;;;6124400;23;20335;-83
2021/11/29 08:55:58;;;;;;;0.98;0.40;;;7.80;99.90;;;;;;6099033;23;20092;-83
2021/11/29 08:58:24;;;;;;;0.70;0.40;;;7.90;99.90;;;;;;6125064;23;20745;-83
2021/11/29 09:00:54;;;;;;;0.73;0.30;;;7.90;99.90;;;;;;6124730;23;20081;-83
2021/11/29 09:03:20;;;;;;;0.85;0.40;;;7.90;99.90;;;;;;6098927;23;20006;-83
2021/11/29 09:05:46;;;;;;;0.30;0.30;;;8.00;99.90;;;;;;6125299;23;20098;-84
2021/11/29 09:08:13;;;;;;;0.88;0.50;;;8.10;99.90;;;;;;6099115;23;20452;-84
2021/11/29 09:10:41;;;;;;;0.60;0.30;;;8.20;99.90;;;;;;6124818;23;20001;-83
2021/11/29 09:13:07;;;;;;;5.05;0.57;;;8.40;99.90;;;;;;6098770;23;20060;-83
2021/11/29 09:15:33;;;;;;;0.73;0.30;;;8.40;99.90;;;;;;6124255;23;20394;-82
2021/11/29 09:17:59;;;;;;;1.58;0.30;;;8.60;99.90;;;;;;6124707;23;20566;-84
2021/11/29 09:20:29;;;;;;;0.52;0.32;;;8.80;99.90;;;;;;6098673;23;20013;-83
2021/11/29 09:22:56;;;;;;;0.30;0.30;;;8.90;99.90;;;;;;6098737;23;20010;-82
2021/11/29 09:25:22;;;;;;;0.40;0.40;;;9.00;99.90;;;;;;6124177;23;20102;-83
2021/11/29 09:27:48;;;;;;;0.57;0.43;;;9.30;99.90;;;;;;6124697;23;20005;-83
2021/11/29 09:30:18;;;;;;;0.30;0.30;;;9.50;99.90;;;;;;6124797;23;20009;-84
2021/11/29 09:32:44;;;;;;;0.90;0.50;;;9.70;99.90;;;;;;6124576;23;20331;-84
2021/11/29 09:35:16;;;;;;;0.43;0.43;;;10.00;99.90;;;;;;6122591;23;20010;-84
2021/11/29 09:37:44;;;;;;;0.40;0.40;;;10.30;99.90;;;;;;6122269;23;20040;-84
2021/11/29 09:40:19;;;;;;;0.43;0.43;;;10.20;97.20;;;;;;6122926;23;20010;-84
2021/11/29 09:42:45;;;;;;;8.15;0.47;;;10.20;97.60;;;;;;6123901;23;20449;-85
2021/11/29 09:45:13;;;;;;;0.60;0.60;;;10.30;96.20;;;;;;6098045;23;20006;-84
2021/11/29 09:47:39;;;;;;;0.45;0.40;;;10.10;95.90;;;;;;6123775;23;20006;-83
2021/11/29 09:50:06;;;;;;;0.45;0.40;;;10.00;96.20;;;;;;6098592;23;20044;-84
2021/11/29 09:52:31;;;;;;;3.03;0.40;;;9.90;96.40;;;;;;6098652;23;20010;-84
2021/11/29 09:54:57;;;;;;;0.88;0.30;;;9.80;95.00;;;;;;6098517;23;20006;-85
2021/11/29 09:57:23;;;;;;;0.43;0.43;;;9.80;94.80;;;;;;6125284;23;20013;-85
2021/11/29 09:59:49;;;;;;;0.50;0.50;;;9.80;94.50;;;;;;6121095;23;19998;-82
2021/11/29 10:02:15;;;;;;;2.53;0.50;;;9.90;95.00;;;;;;6122169;23;20009;-84
2021/11/29 10:04:47;;;;;;;0.47;0.47;;;9.80;94.40;;;;;;6097803;23;20034;-83
2021/11/29 10:07:27;;;;;;;0.40;0.40;;;9.70;94.70;;;;;;6124283;23;20005;-83
2021/11/29 10:09:56;;;;;;;0.50;0.40;;;9.60;95.30;;;;;;6123718;23;20002;-83
2021/11/29 10:12:22;;;;;;;0.30;0.22;;;9.80;94.00;;;;;;6125404;23;19998;-83
2021/11/29 10:15:21;;;;;;;1.17;0.40;;;9.70;94.00;;;;;;6124334;23;20089;-83
2021/11/29 10:17:51;;;;;;;0.20;0.20;;;9.70;93.90;;;;;;6112414;23;20033;-83
2021/11/29 10:20:16;;;;;;;0.35;0.30;;;9.50;93.60;;;;;;6124030;23;20013;-83
2021/11/29 10:23:01;;;;;;;0.50;0.40;;;9.40;92.90;;;;;;6124071;23;20001;-83
2021/11/29 10:25:27;;;;;;;0.30;0.30;;;9.20;93.90;;;;;;6123776;23;20052;-81
2021/11/29 10:27:53;;;;;;;0.32;0.32;;;9.20;93.30;;;;;;6124157;23;19998;-82
2021/11/29 10:30:21;;;;;;;0.50;0.35;;;9.40;92.90;;;;;;6123970;23;20009;-83
2021/11/29 10:32:48;;;;;;;2.47;0.40;;;9.30;92.90;;;;;;6124077;23;20028;-82
2021/11/29 10:35:23;;;;;;;0.55;0.30;;;9.40;93.00;;;;;;6097987;23;20323;-83
2021/11/29 10:37:51;;;;;;;0.50;0.50;;;9.30;93.20;;;;;;6097791;23;20062;-84
2021/11/29 10:40:19;;;;;;;0.70;0.70;;;9.40;92.80;;;;;;6097494;23;20136;-82
2021/11/29 10:42:45;;;;;;;0.50;0.43;;;9.40;91.60;;;;;;6124124;23;20005;-84
2021/11/29 10:45:23;;;;;;;0.65;0.50;;;9.30;92.60;;;;;;6123970;23;20049;-83
2021/11/29 10:47:52;;;;;;;0.63;0.47;;;9.10;91.50;;;;;;6098684;23;20006;-84
2021/11/29 10:50:23;;;;;;;0.45;0.45;;;9.00;91.70;;;;;;6097951;23;20025;-83
2021/11/29 10:52:48;;;;;;;0.43;0.43;;;8.90;92.30;;;;;;6124009;23;20006;-82
2021/11/29 10:55:15;;;;;;;2.15;0.60;;;9.00;92.70;;;;;;6121105;23;20384;-83
2021/11/29 10:57:47;;;;;;;1.17;0.50;;;8.90;91.70;;;;;;6095674;23;20010;-83
2021/11/29 11:00:16;;;;;;;1.30;0.68;;;8.90;92.10;;;;;;6121089;23;19998;-82
2021/11/29 11:02:59;;;;;;;1.95;0.55;;;9.00;92.50;;;;;;6095584;23;20002;-82
2021/11/29 11:05:25;;;;;;;0.40;0.40;;;9.10;92.50;;;;;;6122012;23;20035;-83
2021/11/29 11:07:52;;;;;;;0.52;0.50;;;9.20;92.10;;;;;;6121235;23;20434;-83
2021/11/29 11:10:20;;;;;;;0.88;0.60;;;9.40;93.00;;;;;;6094791;23;20010;-82
2021/11/29 11:12:47;;;;;;;0.85;0.45;;;9.50;91.70;;;;;;6121617;23;20002;-84
2021/11/29 11:15:18;;;;;;;0.52;0.45;;;9.50;91.80;;;;;;6095276;23;20334;-83
2021/11/29 11:17:55;;;;;;;1.10;0.65;;;9.60;91.80;;;;;;6095214;23;20060;-83
2021/11/29 11:20:21;;;;;;;0.40;0.40;;;9.90;91.40;;;;;;6120884;23;20033;-84
2021/11/29 11:22:49;;;;;;;0.60;0.40;;;10.00;91.30;;;;;;6094432;23;20478;-83
2021/11/29 11:25:22;;;;;;;0.32;0.32;;;9.80;90.00;;;;;;6120813;23;20025;-83
2021/11/29 11:28:09;;;;;;;0.57;0.52;;;9.80;90.90;;;;;;6120966;23;20390;-81
2021/11/29 11:30:38;;;;;;;1.10;0.50;;;9.80;89.80;;;;;;6095291;23;20505;-82
2021/11/29 11:33:13;;;;;;;0.35;0.35;;;9.70;89.70;;;;;;6121130;23;20006;-84
2021/11/29 11:35:45;;;;;;;2.85;0.70;;;9.70;90.70;;;;;;6095103;23;20058;-82
2021/11/29 11:38:13;;;;;;;0.95;0.70;;;9.80;90.20;;;;;;6118996;23;20005;-82
2021/11/29 11:40:42;;;;;;;1.35;0.70;;;9.90;90.50;;;;;;6096395;23;20449;-86
2021/11/29 11:43:10;;;;;;;0.75;0.60;;;10.10;91.10;;;;;;6094877;23;20445;-83
2021/11/29 11:45:40;;;;;;;0.47;0.47;;;10.20;90.10;;;;;;6094359;23;20010;-83
2021/11/29 11:48:07;;;;;;;0.68;0.47;;;10.10;90.50;;;;;;6121269;23;20109;-83
2021/11/29 11:50:42;;;;;;;0.75;0.60;;;10.20;90.30;;;;;;6121593;23;20006;-82
2021/11/29 11:53:08;;;;;;;1.27;0.55;;;10.20;90.00;;;;;;6123183;23;19998;-83
2021/11/29 11:55:43;;;;;;;1.00;0.82;;;10.20;90.10;;;;;;6095330;23;20021;-84
2021/11/29 11:58:15;;;;;;;3.25;0.80;;;10.00;88.70;;;;;;6096926;23;20006;-84
2021/11/29 12:00:53;;;;;;;2.20;1.02;;;9.80;91.00;;;;;;6096857;23;20006;-82
2021/11/29 12:03:44;;;;;;;1.35;0.98;;;9.90;90.90;;;;;;6125061;23;20007;-86
2021/11/29 12:06:13;;;;;;;2.60;1.60;;;9.80;89.90;;;;;;6110986;23;20110;-83
2021/11/29 12:08:50;;;;;;;1.40;1.13;;;9.70;91.10;;;;;;6134120;23;19998;-89
2021/11/29 12:14:03;;;;;;;2.72;1.38;;;10.40;91.10;;;;;;6124825;23;20037;-83
2021/11/29 12:16:44;;;;;;;1.10;0.88;;;10.90;90.10;;;;;;6099533;23;20069;-83
2021/11/29 12:19:36;;;;;;;1.88;1.25;;;11.60;89.10;;;;;;6125896;23;20017;-86
2021/11/29 12:22:20;;;;;;;2.53;0.68;;;13.30;84.10;;;;;;6109455;23;20444;-89
2021/11/29 12:24:49;;;;;;;1.45;1.15;;;13.30;82.80;;;;;;6132957;23;20442;-89
2021/11/29 12:27:16;;;;;;;0.55;0.50;;;12.40;81.30;;;;;;6107581;23;20006;-88
2021/11/29 12:29:51;;;;;;;1.30;0.90;;;11.70;81.50;;;;;;6102965;23;20439;-81
2021/11/29 12:32:20;;;;;;;5.88;1.67;;;11.00;85.30;;;;;;6102869;23;20006;-81
2021/11/29 12:37:19;;;;;;;4.32;1.20;;;10.10;86.90;;;;;;6128264;23;20014;-90
2021/11/29 12:39:45;;;;;;;0.60;0.60;;;9.90;89.70;;;;;;6100014;23;20006;-84
2021/11/29 12:42:22;;;;;;;4.45;1.30;;;9.90;86.80;;;;;;6127279;23;20012;-84
2021/11/29 12:44:54;;;;;;;2.03;0.90;;;9.80;88.70;;;;;;6105607;23;20338;-91
2021/11/29 12:47:40;;;;;;;1.35;0.80;;;10.70;87.90;;;;;;6130913;23;19998;-91
2021/11/29 12:50:27;;;;;;;1.45;0.90;;;10.80;84.20;;;;;;6129434;23;20010;-84
2021/11/29 12:53:16;;;;;;;0.45;0.45;;;10.40;84.20;;;;;;6125774;23;20453;-83
2021/11/29 12:56:05;;;;;;;1.67;0.75;;;10.30;85.10;;;;;;6099875;23;20021;-84
2021/11/29 12:58:36;;;;;;;0.70;0.70;;;10.30;85.80;;;;;;6106669;23;20009;-83
2021/11/29 13:01:12;;;;;;;0.55;0.55;;;10.50;84.80;;;;;;6103933;23;20006;-88
2021/11/29 13:03:55;;;;;;;1.00;0.90;;;10.40;85.00;;;;;;6101449;23;19993;-83